Time;durP1;ratioP1;P1;durP2;ratioP2;P2;SDS_P1;SDS_P2;PMS_P1;PMS_P2;Temp;Humidity;BMP_temperature;BMP_pressure;BME280_temperature;BME280_humidity;BME280_pressure;Samples;Min_cycle;Max_cycle;Signal;HPM_P1;HPM_P2
2024/04/09 00:01:01;;;;;;;;;;;;;;;21.48;45.36;99818.25;5222180;26;96720;-70
2024/04/09 00:03:29;;;;;;;;;;;;;;;21.47;45.38;99818.59;5202436;26;94752;-71
2024/04/09 00:05:58;;;;;;;;;;;;;;;21.45;45.35;99810.72;5225139;26;94397;-79
2024/04/09 00:08:29;;;;;;;;;;;;;;;21.44;44.78;99808.34;5194922;26;95147;-71
2024/04/09 00:11:00;;;;;;;;;;;;;;;21.42;45.62;99808.72;5219960;26;94434;-78
2024/04/09 00:13:29;;;;;;;;;;;;;;;21.43;44.73;99807.56;5194834;26;95378;-78
2024/04/09 00:15:55;;;;;;;;;;;;;;;21.49;45.53;99802.59;5206435;26;94579;-70
2024/04/09 00:18:24;;;;;;;;;;;;;;;21.55;44.72;99806.66;5231180;26;94260;-71
2024/04/09 00:20:53;;;;;;;;;;;;;;;21.60;45.26;99800.88;5197659;26;94441;-78
2024/04/09 00:23:22;;;;;;;;;;;;;;;21.65;45.30;99806.09;5244552;26;95489;-72
2024/04/09 00:25:49;;;;;;;;;;;;;;;21.69;45.00;99806.16;5194704;26;94393;-78
2024/04/09 00:28:16;;;;;;;;;;;;;;;21.72;45.09;99808.19;5192949;26;94229;-71
2024/04/09 00:30:44;;;;;;;;;;;;;;;21.73;44.78;99791.41;5224308;26;96293;-71
2024/04/09 00:33:14;;;;;;;;;;;;;;;21.73;45.17;99802.38;5244956;26;94590;-78
2024/04/09 00:35:40;;;;;;;;;;;;;;;21.75;45.49;99793.78;5225914;26;94505;-78
2024/04/09 00:38:06;;;;;;;;;;;;;;;21.75;45.75;99804.75;5227575;26;94417;-78
2024/04/09 00:40:32;;;;;;;;;;;;;;;21.75;45.02;99802.78;5196186;26;94153;-71
2024/04/09 00:43:02;;;;;;;;;;;;;;;21.74;44.96;99800.41;5222793;26;94613;-71
2024/04/09 00:45:28;;;;;;;;;;;;;;;21.76;44.81;99807.13;5222288;26;96341;-77
2024/04/09 00:47:56;;;;;;;;;;;;;;;21.74;45.51;99800.41;5226504;26;94173;-71
2024/04/09 00:50:24;;;;;;;;;;;;;;;21.73;45.25;99802.38;5200843;26;95173;-71
2024/04/09 00:52:51;;;;;;;;;;;;;;;21.72;45.80;99800.75;5221527;26;95884;-77
2024/04/09 00:55:22;;;;;;;;;;;;;;;21.71;45.34;99801.13;5201119;26;98629;-71
2024/04/09 00:57:52;;;;;;;;;;;;;;;21.69;44.90;99800.69;5207886;26;94696;-71
2024/04/09 01:00:19;;;;;;;;;;;;;;;21.68;45.94;99802.63;5196408;26;94462;-71
2024/04/09 01:02:49;;;;;;;;;;;;;;;21.66;45.87;99798.69;5226469;26;94524;-71
2024/04/09 01:05:16;;;;;;;;;;;;;;;21.63;45.41;99800.19;5193514;26;94272;-72
2024/04/09 01:07:43;;;;;;;;;;;;;;;21.59;45.31;99793.81;5196026;26;94600;-77
2024/04/09 01:10:10;;;;;;;;;;;;;;;21.57;45.45;99801.59;5222672;26;94369;-78
2024/04/09 01:12:36;;;;;;;;;;;;;;;21.56;45.13;99802.75;5195930;26;94359;-71
2024/04/09 01:15:03;;;;;;;;;;;;;;;21.52;45.47;99799.13;5228586;26;94420;-78
2024/04/09 01:17:30;;;;;;;;;;;;;;;21.51;45.97;99803.03;5219580;26;94377;-71
2024/04/09 01:19:56;;;;;;;;;;;;;;;21.47;45.87;99800.22;5202180;26;94556;-78
2024/04/09 01:22:26;;;;;;;;;;;;;;;21.45;45.55;99810.72;5218364;26;94271;-71
2024/04/09 01:24:54;;;;;;;;;;;;;;;21.42;45.88;99805.97;5222481;26;94585;-77
2024/04/09 01:27:21;;;;;;;;;;;;;;;21.40;46.02;99812.94;5194761;26;95246;-71
2024/04/09 01:29:49;;;;;;;;;;;;;;;21.37;45.91;99805.44;5220977;26;98634;-77
2024/04/09 01:32:21;;;;;;;;;;;;;;;21.34;45.50;99806.97;5191509;26;94448;-77
2024/04/09 01:34:47;;;;;;;;;;;;;;;21.31;45.54;99808.41;5192948;26;94692;-71
2024/04/09 01:37:17;;;;;;;;;;;;;;;21.29;45.94;99804.44;5220991;26;94561;-71
2024/04/09 01:39:45;;;;;;;;;;;;;;;21.26;45.64;99797.75;5227497;26;94757;-71
2024/04/09 01:42:12;;;;;;;;;;;;;;;21.24;45.78;99801.97;5199334;26;94357;-71
2024/04/09 01:44:38;;;;;;;;;;;;;;;21.22;45.00;99802.34;5203440;26;96698;-77
2024/04/09 01:47:08;;;;;;;;;;;;;;;21.18;45.70;99801.47;5205083;26;94561;-71
2024/04/09 01:49:35;;;;;;;;;;;;;;;21.16;46.26;99806.47;5227480;26;94610;-77
2024/04/09 01:52:04;;;;;;;;;;;;;;;21.15;46.25;99809.59;5219374;26;94570;-77
2024/04/09 01:54:32;;;;;;;;;;;;;;;21.11;46.20;99809.50;5219772;26;94600;-71
2024/04/09 01:56:58;;;;;;;;;;;;;;;21.09;45.49;99807.09;5220108;26;97644;-76
2024/04/09 01:59:27;;;;;;;;;;;;;;;21.08;46.11;99818.41;5226460;26;94382;-77
2024/04/09 02:01:54;;;;;;;;;;;;;;;21.05;45.11;99819.13;5198323;26;95644;-71
2024/04/09 02:04:20;;;;;;;;;;;;;;;21.03;46.21;99815.94;5202460;26;95254;-76
2024/04/09 02:06:47;;;;;;;;;;;;;;;21.00;45.41;99805.69;5246440;26;94102;-71
2024/04/09 02:09:13;;;;;;;;;;;;;;;20.98;45.01;99803.28;5228917;26;94721;-78
2024/04/09 02:11:40;;;;;;;;;;;;;;;20.97;46.10;99814.59;5192489;26;94924;-76
2024/04/09 02:14:06;;;;;;;;;;;;;;;20.95;46.03;99814.19;5192540;26;95048;-71
2024/04/09 02:16:33;;;;;;;;;;;;;;;20.93;45.71;99808.25;5222283;26;96133;-71
2024/04/09 02:19:00;;;;;;;;;;;;;;;20.90;45.16;99812.47;5198778;26;95742;-70
2024/04/09 02:21:26;;;;;;;;;;;;;;;20.88;45.21;99806.56;5225406;26;94568;-71
2024/04/09 02:23:53;;;;;;;;;;;;;;;20.87;46.33;99809.63;5214903;26;94443;-76
2024/04/09 02:26:21;;;;;;;;;;;;;;;20.83;46.09;99804.09;5185380;26;94348;-71
2024/04/09 02:28:47;;;;;;;;;;;;;;;20.81;45.13;99809.91;5201625;26;94361;-70
2024/04/09 02:31:13;;;;;;;;;;;;;;;20.78;45.20;99799.66;5218358;26;94459;-70
2024/04/09 02:33:39;;;;;;;;;;;;;;;20.77;46.09;99802.75;5222728;26;94238;-76
2024/04/09 02:36:08;;;;;;;;;;;;;;;20.74;45.34;99804.25;5197656;26;95386;-77
2024/04/09 02:38:36;;;;;;;;;;;;;;;20.73;45.25;99807.34;5219492;26;94522;-77
2024/04/09 02:41:06;;;;;;;;;;;;;;;20.70;45.69;99797.09;5202995;26;94624;-71
2024/04/09 02:43:33;;;;;;;;;;;;;;;20.68;45.54;99797.44;5204281;26;94647;-71
2024/04/09 02:46:00;;;;;;;;;;;;;;;20.65;45.71;99795.41;5194091;26;95554;-77
2024/04/09 02:48:27;;;;;;;;;;;;;;;20.63;45.61;99792.19;5220385;26;96117;-71
2024/04/09 02:50:57;;;;;;;;;;;;;;;20.62;45.84;99787.09;5225559;26;95041;-77
2024/04/09 02:53:25;;;;;;;;;;;;;;;20.59;45.50;99788.56;5216407;26;95083;-77
2024/04/09 02:56:05;;;;;;;;;;;;;;;20.58;46.12;99793.25;5201331;26;94306;-77
2024/04/09 02:58:36;;;;;;;;;;;;;;;20.54;45.81;99786.91;5242071;26;94446;-71
2024/04/09 03:01:09;;;;;;;;;;;;;;;20.53;45.66;99785.31;5203587;26;94422;-77
2024/04/09 03:03:35;;;;;;;;;;;;;;;20.50;45.79;99782.47;5220506;26;95113;-77
2024/04/09 03:06:08;;;;;;;;;;;;;;;20.49;46.18;99789.09;5226689;26;94628;-71
2024/04/09 03:08:36;;;;;;;;;;;;;;;20.47;46.01;99783.13;5193976;26;94621;-75
2024/04/09 03:11:11;;;;;;;;;;;;;;;20.44;46.13;99779.19;5190168;26;94413;-77
2024/04/09 03:13:37;;;;;;;;;;;;;;;20.43;46.27;99769.34;5216781;26;94398;-77
2024/04/09 03:16:20;;;;;;;;;;;;;;;20.42;45.48;99775.19;5193331;26;94569;-71
2024/04/09 03:18:47;;;;;;;;;;;;;;;20.40;46.15;99766.56;5244339;26;94910;-77
2024/04/09 03:21:13;;;;;;;;;;;;;;;20.38;45.67;99768.81;5193057;26;94631;-77
2024/04/09 03:23:41;;;;;;;;;;;;;;;20.35;46.21;99768.38;5204065;26;94332;-71
2024/04/09 03:26:10;;;;;;;;;;;;;;;20.33;46.29;99767.16;5195855;26;94754;-76
2024/04/09 03:28:38;;;;;;;;;;;;;;;20.32;46.27;99771.03;5229687;26;97545;-77
2024/04/09 03:31:04;;;;;;;;;;;;;;;20.30;45.69;99767.84;5202174;26;94244;-77
2024/04/09 03:33:31;;;;;;;;;;;;;;;20.28;45.64;99764.66;5229019;26;95055;-76
2024/04/09 03:35:58;;;;;;;;;;;;;;;20.26;45.49;99765.00;5229167;26;94227;-76
2024/04/09 03:38:24;;;;;;;;;;;;;;;20.24;46.07;99759.09;5225077;26;94645;-71
2024/04/09 03:40:57;;;;;;;;;;;;;;;20.22;46.00;99755.09;5222665;26;112401;-76
2024/04/09 03:43:23;;;;;;;;;;;;;;;20.20;46.08;99750.00;5218459;26;95730;-77
2024/04/09 03:46:06;;;;;;;;;;;;;;;20.18;45.70;99751.47;5230201;26;94500;-76
2024/04/09 03:48:38;;;;;;;;;;;;;;;20.17;46.26;99749.91;5195019;26;95504;-76
2024/04/09 03:51:05;;;;;;;;;;;;;;;20.15;46.38;99743.97;5226678;26;94699;-76
2024/04/09 03:53:32;;;;;;;;;;;;;;;20.13;46.35;99743.53;5206129;26;96126;-71
2024/04/09 03:56:02;;;;;;;;;;;;;;;20.11;45.65;99743.84;5169345;26;95289;-70
2024/04/09 03:58:37;;;;;;;;;;;;;;;20.10;46.46;99739.53;5223212;26;94812;-76
2024/04/09 04:01:03;;;;;;;;;;;;;;;20.08;46.22;99736.34;5231437;26;96391;-70
2024/04/09 04:03:31;;;;;;;;;;;;;;;20.06;46.48;99736.69;5197304;26;101569;-70
2024/04/09 04:05:58;;;;;;;;;;;;;;;20.05;45.94;99732.38;5198678;26;94137;-76
2024/04/09 04:08:28;;;;;;;;;;;;;;;20.04;46.40;99729.97;5195078;26;94099;-77
2024/04/09 04:11:05;;;;;;;;;;;;;;;20.02;45.65;99733.06;5209821;26;94616;-76
2024/04/09 04:13:32;;;;;;;;;;;;;;;20.01;46.11;99728.75;5219046;26;94707;-71
2024/04/09 04:16:07;;;;;;;;;;;;;;;19.99;46.68;99720.09;5223226;26;96307;-76
2024/04/09 04:18:36;;;;;;;;;;;;;;;19.98;46.43;99723.19;5242420;26;94520;-71
2024/04/09 04:21:03;;;;;;;;;;;;;;;19.96;46.59;99723.50;5223949;26;96400;-71
2024/04/09 04:23:30;;;;;;;;;;;;;;;19.95;45.66;99719.19;5215511;26;94510;-76
2024/04/09 04:26:26;;;;;;;;;;;;;;;19.94;46.64;99719.56;5197449;26;94821;-76
2024/04/09 04:28:53;;;;;;;;;;;;;;;19.93;45.99;99720.69;5224052;26;95690;-76
2024/04/09 04:31:23;;;;;;;;;;;;;;;19.93;45.64;99723.44;5230930;26;95445;-76
2024/04/09 04:33:49;;;;;;;;;;;;;;;19.93;46.63;99724.22;5199941;26;94667;-77
2024/04/09 04:36:19;;;;;;;;;;;;;;;19.93;45.68;99726.97;5175880;26;95663;-71
2024/04/09 04:38:49;;;;;;;;;;;;;;;19.93;45.83;99720.69;5221021;26;95228;-71
2024/04/09 04:41:16;;;;;;;;;;;;;;;19.94;46.23;99722.28;5186484;26;95622;-76
2024/04/09 04:43:42;;;;;;;;;;;;;;;19.94;46.37;99712.13;5194308;26;95171;-71
2024/04/09 04:46:08;;;;;;;;;;;;;;;19.95;46.24;99711.00;5193912;26;94436;-76
2024/04/09 04:48:37;;;;;;;;;;;;;;;19.96;45.65;99712.56;5218687;26;96527;-76
2024/04/09 04:51:05;;;;;;;;;;;;;;;19.98;46.06;99712.25;5235998;26;95268;-71
2024/04/09 04:53:32;;;;;;;;;;;;;;;20.00;46.42;99721.69;5228281;26;98735;-71
2024/04/09 04:56:00;;;;;;;;;;;;;;;20.01;45.72;99717.81;5204118;26;94830;-76
2024/04/09 04:58:28;;;;;;;;;;;;;;;20.05;45.76;99709.72;5192362;26;97248;-71
2024/04/09 05:00:55;;;;;;;;;;;;;;;20.09;45.61;99716.06;5194886;26;96140;-71
2024/04/09 05:03:22;;;;;;;;;;;;;;;20.13;45.55;99721.66;5217126;26;95037;-71
2024/04/09 05:05:53;;;;;;;;;;;;;;;20.16;45.80;99718.19;5198206;26;94649;-76
2024/04/09 05:08:20;;;;;;;;;;;;;;;20.21;46.34;99720.69;5193480;26;95036;-70
2024/04/09 05:10:47;;;;;;;;;;;;;;;20.26;45.56;99714.97;5200611;26;97967;-71
2024/04/09 05:13:14;;;;;;;;;;;;;;;20.32;45.92;99716.31;5215640;26;94873;-76
2024/04/09 05:15:40;;;;;;;;;;;;;;;20.39;46.42;99715.69;5215290;26;94728;-76
2024/04/09 05:18:08;;;;;;;;;;;;;;;20.44;45.65;99723.66;5191624;26;94766;-76
2024/04/09 05:20:36;;;;;;;;;;;;;;;20.50;45.19;99722.25;5251803;26;94311;-71
2024/04/09 05:23:04;;;;;;;;;;;;;;;20.54;45.91;99723.16;5188369;26;95425;-71
2024/04/09 05:25:33;;;;;;;;;;;;;;;20.60;46.05;99721.75;5200749;26;95157;-76
2024/04/09 05:27:59;;;;;;;;;;;;;;;20.64;45.10;99722.63;5214210;26;94531;-76
2024/04/09 05:30:25;;;;;;;;;;;;;;;20.69;45.43;99716.09;5223661;26;95373;-71
2024/04/09 05:32:52;;;;;;;;;;;;;;;20.73;45.88;99715.03;5246973;26;95961;-70
2024/04/09 05:35:20;;;;;;;;;;;;;;;20.77;44.98;99718.66;5219194;26;95094;-76
2024/04/09 05:37:47;;;;;;;;;;;;;;;20.82;45.03;99723.06;5199840;26;94228;-75
2024/04/09 05:40:14;;;;;;;;;;;;;;;20.87;45.31;99724.75;5192423;26;95650;-71
2024/04/09 05:42:46;;;;;;;;;;;;;;;20.91;44.98;99726.44;5197968;26;94993;-76
2024/04/09 05:45:13;;;;;;;;;;;;;;;20.95;46.12;99724.56;5220815;26;96936;-71
2024/04/09 05:47:40;;;;;;;;;;;;;;;21.01;44.99;99725.88;5200558;26;94757;-70
2024/04/09 05:50:07;;;;;;;;;;;;;;;21.06;45.97;99727.56;5226185;26;94476;-71
2024/04/09 05:52:34;;;;;;;;;;;;;;;21.12;45.30;99723.41;5224571;26;95284;-76
2024/04/09 05:55:01;;;;;;;;;;;;;;;21.20;45.70;99727.09;5226172;26;94852;-71
2024/04/09 05:57:36;;;;;;;;;;;;;;;21.28;45.05;99717.91;5220480;26;95299;-71
2024/04/09 06:00:08;;;;;;;;;;;;;;;21.38;44.87;99706.41;5223053;26;94872;-70
2024/04/09 06:02:36;;;;;;;;;;;;;;;21.50;45.64;99709.03;5217393;26;95365;-76
2024/04/09 06:05:02;;;;;;;;;;;;;;;21.61;44.69;99711.19;5217486;26;95104;-71
2024/04/09 06:07:30;;;;;;;;;;;;;;;21.72;45.23;99710.25;5219666;26;95208;-71
2024/04/09 06:09:56;;;;;;;;;;;;;;;21.84;44.72;99714.81;5222011;26;95386;-76
2024/04/09 06:12:23;;;;;;;;;;;;;;;21.94;45.38;99705.22;5225276;26;94803;-71
2024/04/09 06:14:53;;;;;;;;;;;;;;;22.05;45.44;99709.78;5203270;26;96881;-71
2024/04/09 06:17:19;;;;;;;;;;;;;;;22.15;44.57;99711.16;5199885;26;95199;-71
2024/04/09 06:19:45;;;;;;;;;;;;;;;22.26;45.53;99700.38;5192579;26;94503;-76
2024/04/09 06:22:11;;;;;;;;;;;;;;;22.39;45.17;99704.53;5228983;26;97651;-71
2024/04/09 06:24:38;;;;;;;;;;;;;;;22.51;45.12;99703.56;5243201;26;97576;-71
2024/04/09 06:27:05;;;;;;;;;;;;;;;22.64;44.72;99694.00;5223257;26;94513;-71
2024/04/09 06:29:32;;;;;;;;;;;;;;;22.78;44.74;99696.16;5199902;26;95000;-76
2024/04/09 06:31:59;;;;;;;;;;;;;;;22.93;44.88;99703.50;5194350;26;95050;-71
2024/04/09 06:34:26;;;;;;;;;;;;;;;23.10;44.65;99701.41;5194884;26;94757;-76
2024/04/09 06:36:53;;;;;;;;;;;;;;;23.27;44.46;99701.69;5220723;26;94777;-71
2024/04/09 06:39:19;;;;;;;;;;;;;;;23.46;44.54;99705.44;5192558;26;94458;-77
2024/04/09 06:41:45;;;;;;;;;;;;;;;23.64;44.70;99702.94;5195025;26;95572;-71
2024/04/09 06:44:12;;;;;;;;;;;;;;;23.84;44.33;99695.34;5223727;26;94840;-76
2024/04/09 06:46:38;;;;;;;;;;;;;;;24.01;44.56;99694.75;5196286;26;96380;-77
2024/04/09 06:49:05;;;;;;;;;;;;;;;24.20;43.93;99691.03;5225444;26;97332;-76
2024/04/09 06:51:32;;;;;;;;;;;;;;;24.40;44.38;99697.16;5191544;26;94735;-70
2024/04/09 06:53:58;;;;;;;;;;;;;;;24.60;43.78;99698.56;5217569;26;95919;-75
2024/04/09 06:56:24;;;;;;;;;;;;;;;24.78;44.51;99698.69;5224227;26;94967;-76
2024/04/09 06:58:50;;;;;;;;;;;;;;;24.98;44.15;99691.75;5218189;26;94950;-76
2024/04/09 07:01:17;;;;;;;;;;;;;;;25.22;44.25;99695.09;5218927;26;94753;-71
2024/04/09 07:03:44;;;;;;;;;;;;;;;25.39;44.25;99694.41;5196600;26;96524;-70
2024/04/09 07:06:11;;;;;;;;;;;;;;;25.59;43.34;99683.88;5198077;26;94804;-71
2024/04/09 07:08:38;;;;;;;;;;;;;;;25.79;43.81;99691.88;5220859;26;94949;-76
2024/04/09 07:11:04;;;;;;;;;;;;;;;25.98;42.87;99682.44;5217716;26;94867;-76
2024/04/09 07:13:31;;;;;;;;;;;;;;;26.14;43.08;99686.44;5242635;26;94373;-71
2024/04/09 07:15:58;;;;;;;;;;;;;;;26.29;43.97;99676.22;5218431;26;94705;-76
2024/04/09 07:18:27;;;;;;;;;;;;;;;26.48;43.99;99680.59;5187585;26;94618;-71
2024/04/09 07:20:54;;;;;;;;;;;;;;;26.68;43.69;99675.47;5200033;26;98059;-76
2024/04/09 07:23:20;;;;;;;;;;;;;;;26.88;42.98;99686.91;5203112;26;95022;-72
2024/04/09 07:25:46;;;;;;;;;;;;;;;27.04;43.57;99679.00;5196914;26;95224;-76
2024/04/09 07:28:13;;;;;;;;;;;;;;;27.24;43.38;99684.16;5199986;26;94365;-76
2024/04/09 07:30:40;;;;;;;;;;;;;;;27.44;43.17;99678.94;5199951;26;94293;-76
2024/04/09 07:33:07;;;;;;;;;;;;;;;27.62;43.10;99674.91;5191881;26;95141;-76
2024/04/09 07:35:35;;;;;;;;;;;;;;;27.85;43.08;99671.66;5204503;26;95340;-77
2024/04/09 07:38:01;;;;;;;;;;;;;;;28.08;43.30;99673.91;5195052;26;94718;-71
2024/04/09 07:40:28;;;;;;;;;;;;;;;28.32;43.02;99677.72;5221493;26;95796;-72
2024/04/09 07:42:56;;;;;;;;;;;;;;;28.58;42.48;99675.59;5196327;26;95621;-76
2024/04/09 07:45:22;;;;;;;;;;;;;;;28.81;43.09;99666.69;5246136;26;94314;-77
2024/04/09 07:47:49;;;;;;;;;;;;;;;29.04;42.83;99671.63;5198529;26;94999;-71
2024/04/09 07:50:17;;;;;;;;;;;;;;;29.26;41.95;99672.19;5199953;26;95751;-76
2024/04/09 07:52:44;;;;;;;;;;;;;;;29.53;42.23;99656.41;5205035;26;96583;-76
2024/04/09 07:55:11;;;;;;;;;;;;;;;29.79;43.09;99656.91;5227269;26;94655;-71
2024/04/09 07:57:43;;;;;;;;;;;;;;;30.03;41.64;99655.78;5231971;26;94231;-77
2024/04/09 08:00:16;;;;;;;;;;;;;;;30.31;42.03;99657.38;5227997;26;94664;-72
2024/04/09 08:02:43;;;;;;;;;;;;;;;30.65;41.63;99656.41;5228076;26;94301;-72
2024/04/09 08:05:10;;;;;;;;;;;;;;;30.98;42.39;99656.69;5225840;26;96316;-72
2024/04/09 08:07:39;;;;;;;;;;;;;;;31.38;42.03;99662.31;5242273;26;96839;-76
2024/04/09 08:10:11;;;;;;;;;;;;;;;31.68;41.14;99659.31;5225576;26;96054;-72
2024/04/09 08:12:39;;;;;;;;;;;;;;;31.94;41.92;99667.91;5198356;26;94549;-76
2024/04/09 08:15:08;;;;;;;;;;;;;;;32.24;41.70;99666.84;5213655;26;95500;-71
2024/04/09 08:17:35;;;;;;;;;;;;;;;32.55;41.51;99666.53;5196641;26;94769;-72
2024/04/09 08:20:07;;;;;;;;;;;;;;;33.08;41.09;99664.38;5217842;26;95197;-72
2024/04/09 08:22:39;;;;;;;;;;;;;;;33.51;41.26;99658.41;5199769;26;95065;-72
2024/04/09 08:25:07;;;;;;;;;;;;;;;33.88;41.31;99651.34;5225748;26;94528;-72
2024/04/09 08:27:40;;;;;;;;;;;;;;;34.17;40.66;99659.63;5203315;26;94240;-72
2024/04/09 08:30:18;;;;;;;;;;;;;;;34.29;40.59;99660.06;5221326;26;94760;-73
2024/04/09 08:32:46;;;;;;;;;;;;;;;34.29;40.86;99658.06;5220628;26;95074;-77
2024/04/09 08:35:14;;;;;;;;;;;;;;;34.84;40.47;99655.06;5191546;26;96183;-73
2024/04/09 08:37:44;;;;;;;;;;;;;;;35.31;40.11;99673.84;5195161;26;94851;-73
2024/04/09 08:40:17;;;;;;;;;;;;;;;35.80;40.31;99668.38;5228361;26;94785;-73
2024/04/09 08:42:44;;;;;;;;;;;;;;;36.33;40.03;99673.94;5199415;26;94138;-77
2024/04/09 08:45:14;;;;;;;;;;;;;;;36.89;39.67;99680.47;5223017;26;98646;-79
2024/04/09 08:47:42;;;;;;;;;;;;;;;37.38;39.61;99678.78;5243822;26;100488;-74
2024/04/09 08:50:14;;;;;;;;;;;;;;;37.74;39.57;99672.31;5198073;26;95449;-74
2024/04/09 08:52:40;;;;;;;;;;;;;;;38.03;39.75;99661.31;5217600;26;95118;-75
2024/04/09 08:55:10;;;;;;;;;;;;;;;38.33;39.23;99657.88;5247759;26;95133;-73
2024/04/09 08:57:36;;;;;;;;;;;;;;;38.61;39.16;99652.91;5223508;26;94648;-74
2024/04/09 09:00:06;;;;;;;;;;;;;;;38.88;39.63;99643.50;5190831;26;94945;-74
2024/04/09 09:02:35;;;;;;;;;;;;;;;39.16;39.15;99649.66;5242241;26;95136;-77
2024/04/09 09:05:02;;;;;;;;;;;;;;;39.41;38.73;99642.72;5221600;26;95010;-81
2024/04/09 09:07:29;;;;;;;;;;;;;;;39.65;39.12;99634.91;5224403;26;99121;-78
2024/04/09 09:10:05;;;;;;;;;;;;;;;39.90;38.82;99633.56;5202111;26;94527;-78
2024/04/09 09:12:31;;;;;;;;;;;;;;;40.24;39.10;99626.38;5226312;26;94707;-72
2024/04/09 09:15:01;;;;;;;;;;;;;;;40.50;38.98;99631.34;5211657;26;94632;-72
2024/04/09 09:17:31;;;;;;;;;;;;;;;40.70;38.52;99631.38;5198629;26;94576;-72
2024/04/09 09:20:01;;;;;;;;;;;;;;;40.77;39.34;99652.75;5199326;26;96152;-72
2024/04/09 09:22:29;;;;;;;;;;;;;;;40.78;38.95;99651.47;5194924;26;94356;-76
2024/04/09 09:24:59;;;;;;;;;;;;;;;40.87;38.55;99645.66;5203625;26;96012;-72
2024/04/09 09:27:28;;;;;;;;;;;;;;;41.09;39.02;99642.34;5221735;26;95172;-76
2024/04/09 09:29:54;;;;;;;;;;;;;;;41.42;38.21;99641.16;5187825;26;94320;-72
2024/04/09 09:32:23;;;;;;;;;;;;;;;41.83;37.95;99644.59;5222557;26;98493;-72
2024/04/09 09:34:50;;;;;;;;;;;;;;;42.13;38.31;99635.78;5202703;26;94306;-72
2024/04/09 09:37:17;;;;;;;;;;;;;;;42.44;38.14;99631.34;5201410;26;98228;-77
2024/04/09 09:39:43;;;;;;;;;;;;;;;42.80;38.09;99621.22;5224807;26;95844;-73
2024/04/09 09:42:11;;;;;;;;;;;;;;;43.00;37.94;99606.88;5195355;26;94196;-76
2024/04/09 09:44:39;;;;;;;;;;;;;;;43.25;37.72;99610.00;5222813;26;95178;-73
2024/04/09 09:47:07;;;;;;;;;;;;;;;43.48;37.63;99597.41;5228523;26;94638;-73
2024/04/09 09:49:35;;;;;;;;;;;;;;;43.75;37.75;99595.09;5220019;26;94223;-77
2024/04/09 09:52:02;;;;;;;;;;;;;;;43.99;37.23;99595.31;5229495;26;94684;-74
2024/04/09 09:54:29;;;;;;;;;;;;;;;44.28;37.21;99602.47;5200492;26;94835;-75
2024/04/09 09:57:00;;;;;;;;;;;;;;;44.48;37.29;99597.75;5203946;26;95669;-71
2024/04/09 09:59:28;;;;;;;;;;;;;;;44.65;37.29;99589.13;5215931;26;98456;-71
2024/04/09 10:01:55;;;;;;;;;;;;;;;44.87;36.73;99594.72;5193194;26;95215;-71
2024/04/09 10:04:25;;;;;;;;;;;;;;;45.04;36.90;99595.41;5221286;26;95195;-71
2024/04/09 10:07:01;;;;;;;;;;;;;;;45.28;36.73;99591.88;5219556;26;94196;-75
2024/04/09 10:09:52;;;;;;;;;;;;;;;45.47;36.77;99591.97;5248264;26;94900;-76
2024/04/09 10:12:23;;;;;;;;;;;;;;;45.70;36.56;99598.22;5194795;26;96524;-72
2024/04/09 10:14:57;;;;;;;;;;;;;;;45.92;36.39;99600.13;5252963;26;95626;-75
2024/04/09 10:17:30;;;;;;;;;;;;;;;46.01;36.62;99593.28;5243296;26;95005;-72
2024/04/09 10:19:56;;;;;;;;;;;;;;;46.19;36.59;99592.59;5221623;26;94891;-73
2024/04/09 10:22:23;;;;;;;;;;;;;;;46.36;36.46;99597.31;5222344;26;94555;-72
2024/04/09 10:24:52;;;;;;;;;;;;;;;46.46;36.48;99596.41;5221143;26;94396;-75
2024/04/09 10:27:19;;;;;;;;;;;;;;;46.55;36.35;99603.03;5188389;26;96155;-72
2024/04/09 10:29:53;;;;;;;;;;;;;;;46.62;36.42;99594.66;5200042;26;96163;-75
2024/04/09 10:32:24;;;;;;;;;;;;;;;46.71;36.31;99596.34;5199969;26;94387;-75
2024/04/09 10:34:52;;;;;;;;;;;;;;;46.80;36.29;99598.03;5219428;26;94906;-73
2024/04/09 10:37:19;;;;;;;;;;;;;;;46.83;36.74;99594.88;5217340;26;95583;-75
2024/04/09 10:39:46;;;;;;;;;;;;;;;46.87;36.05;99591.72;5223672;26;94759;-72
2024/04/09 10:42:17;;;;;;;;;;;;;;;46.83;36.12;99591.25;5220301;26;94269;-75
2024/04/09 10:44:45;;;;;;;;;;;;;;;46.84;36.06;99596.41;5219745;26;95285;-75
2024/04/09 10:47:11;;;;;;;;;;;;;;;46.87;36.27;99595.34;5193124;26;95903;-75
2024/04/09 10:49:39;;;;;;;;;;;;;;;46.94;36.42;99585.41;5197111;26;100352;-75
2024/04/09 10:52:06;;;;;;;;;;;;;;;47.01;36.13;99581.94;5199299;26;94169;-75
2024/04/09 10:54:32;;;;;;;;;;;;;;;47.01;35.81;99587.66;5195138;26;94684;-71
2024/04/09 10:56:59;;;;;;;;;;;;;;;46.84;36.12;99585.00;5222004;26;94833;-75
2024/04/09 10:59:27;;;;;;;;;;;;;;;46.57;36.39;99586.94;5213740;26;94628;-72
2024/04/09 11:01:54;;;;;;;;;;;;;;;46.17;36.91;99580.94;5189503;26;96647;-72
2024/04/09 11:04:21;;;;;;;;;;;;;;;45.76;37.23;99579.03;5200128;26;94686;-75
2024/04/09 11:06:49;;;;;;;;;;;;;;;45.56;37.15;99582.34;5193778;26;94801;-72
2024/04/09 11:09:21;;;;;;;;;;;;;;;45.53;37.01;99578.50;5202225;26;94597;-75
2024/04/09 11:11:49;;;;;;;;;;;;;;;45.30;37.24;99577.88;5216394;26;94940;-72
2024/04/09 11:14:16;;;;;;;;;;;;;;;44.77;37.67;99565.88;5218290;26;95019;-75
2024/04/09 11:16:49;;;;;;;;;;;;;;;44.36;38.01;99565.03;5191891;26;95728;-75
2024/04/09 11:19:27;;;;;;;;;;;;;;;44.08;38.15;99571.56;5211426;26;94845;-75
2024/04/09 11:21:53;;;;;;;;;;;;;;;43.84;37.94;99572.09;5193167;26;94771;-75
2024/04/09 11:24:21;;;;;;;;;;;;;;;43.80;38.06;99580.88;5189398;26;94779;-75
2024/04/09 11:26:48;;;;;;;;;;;;;;;43.44;37.98;99587.59;5196729;26;94391;-75
2024/04/09 11:29:21;;;;;;;;;;;;;;;43.47;37.67;99587.38;5181936;26;94689;-74
2024/04/09 11:31:49;;;;;;;;;;;;;;;43.34;37.85;99589.91;5195982;26;94297;-75
2024/04/09 11:34:28;;;;;;;;;;;;;;;43.42;37.71;99579.59;5197576;26;94253;-75
2024/04/09 11:36:55;;;;;;;;;;;;;;;43.35;38.06;99585.78;5221731;26;94857;-75
2024/04/09 11:39:24;;;;;;;;;;;;;;;43.25;37.72;99588.09;5235064;26;95729;-75
2024/04/09 11:41:50;;;;;;;;;;;;;;;43.18;37.74;99585.78;5224827;26;95383;-72
2024/04/09 11:44:24;;;;;;;;;;;;;;;43.14;37.73;99597.38;5217353;26;95458;-75
2024/04/09 11:46:50;;;;;;;;;;;;;;;43.04;38.32;99590.38;5195355;26;94871;-74
2024/04/09 11:49:19;;;;;;;;;;;;;;;42.93;38.12;99583.94;5213980;26;94436;-75
2024/04/09 11:51:46;;;;;;;;;;;;;;;42.64;38.56;99580.22;5189683;26;95792;-72
2024/04/09 11:54:13;;;;;;;;;;;;;;;42.59;38.42;99584.56;5221439;26;94980;-75
2024/04/09 11:56:40;;;;;;;;;;;;;;;42.57;38.11;99578.66;5213626;26;94691;-74
2024/04/09 11:59:07;;;;;;;;;;;;;;;42.53;38.14;99585.88;5188918;26;99485;-75
2024/04/09 12:01:35;;;;;;;;;;;;;;;42.46;37.79;99577.84;5228467;26;94396;-75
2024/04/09 12:04:01;;;;;;;;;;;;;;;42.37;38.45;99578.84;5221009;26;94512;-72
2024/04/09 12:06:28;;;;;;;;;;;;;;;42.32;37.83;99580.34;5202572;26;95007;-74
2024/04/09 12:08:54;;;;;;;;;;;;;;;42.26;38.33;99584.47;5227119;26;95238;-75
2024/04/09 12:11:22;;;;;;;;;;;;;;;42.09;37.94;99587.16;5218157;26;94791;-72
2024/04/09 12:13:48;;;;;;;;;;;;;;;41.81;38.12;99589.78;5221497;26;98151;-75
2024/04/09 12:16:16;;;;;;;;;;;;;;;41.80;38.43;99599.56;5198731;26;95654;-72
2024/04/09 12:18:44;;;;;;;;;;;;;;;41.69;38.58;99606.69;5221633;26;94690;-72
2024/04/09 12:21:12;;;;;;;;;;;;;;;41.26;38.62;99602.19;5222070;26;96721;-72
2024/04/09 12:23:39;;;;;;;;;;;;;;;41.37;38.59;99597.41;5195836;26;94950;-75
2024/04/09 12:26:07;;;;;;;;;;;;;;;41.37;38.52;99599.47;5192352;26;94766;-72
2024/04/09 12:28:33;;;;;;;;;;;;;;;41.33;38.26;99610.22;5191848;26;94321;-72
2024/04/09 12:31:00;;;;;;;;;;;;;;;41.21;38.31;99609.34;5223702;26;94978;-71
2024/04/09 12:33:29;;;;;;;;;;;;;;;41.00;38.82;99605.03;5192869;26;94506;-71
2024/04/09 12:35:56;;;;;;;;;;;;;;;40.76;38.92;99610.88;5245296;26;94962;-74
2024/04/09 12:38:22;;;;;;;;;;;;;;;40.55;39.11;99613.72;5218853;26;95565;-75
2024/04/09 12:40:50;;;;;;;;;;;;;;;40.08;39.06;99623.28;5229271;26;94833;-71
2024/04/09 12:43:18;;;;;;;;;;;;;;;39.34;39.87;99624.16;5220748;26;95441;-71
2024/04/09 12:45:45;;;;;;;;;;;;;;;38.70;40.52;99621.84;5225977;26;94961;-71
2024/04/09 12:48:13;;;;;;;;;;;;;;;38.12;40.48;99634.38;5219302;26;95868;-71
2024/04/09 12:50:39;;;;;;;;;;;;;;;37.63;40.74;99627.84;5219389;26;95371;-75